Hingham, Montana
Current Conditions -  °F | °C
As of 9:53 AM on Thursday 30 Oct 2014 (Local Time) from KHVR Reporting Station
Moderate Fog Moderate Fog  
Wind Chill: -6°   Ceiling: 200
Heat Index: -1°   Visibility: 0.25mi
Dew Point: -1°   Wind: 13mph
Humidity: 96%   Direction: 80°E
Pressure: 30.31"   Gusts: NA
Location:  48.55°N, 110.42°W
Report Text: KHVR 301553Z AUTO 08011KT 1/4SM FZFG VV002 M01/M01 A3031 RMK AO2 SLP288 I1001 T10061011
Loading
Personal Weather Stations






























Interactive Weather Map
Tropical Storm Tracking
New forecast layout! Learn more

10-Day Weather Forecast

Advertisements
Track Severe Weather on mobile